Time;durP1;ratioP1;P1;durP2;ratioP2;P2;SDS_P1;SDS_P2;PMS_P1;PMS_P2;Temp;Humidity;BMP_temperature;BMP_pressure;BME280_temperature;BME280_humidity;BME280_pressure;Samples;Min_cycle;Max_cycle;Signal;HPM_P1;HPM_P2
2022/02/13 01:09:03;;;;;;;11.02;6.68;;;;;;;5.25;99.41;103054.34;5547299;23;20079;-70
2022/02/13 01:11:48;;;;;;;11.90;6.47;;;;;;;5.03;99.35;103053.41;4935916;29;20044;-71
2022/02/13 01:14:34;;;;;;;11.45;6.43;;;;;;;4.84;100.00;103049.13;4935939;29;20062;-71
2022/02/13 01:17:20;;;;;;;11.77;5.97;;;;;;;5.12;100.00;103049.47;4922733;29;20020;-71
2022/02/13 01:20:06;;;;;;;9.43;5.93;;;;;;;5.06;100.00;103046.59;4939596;29;20035;-71
2022/02/13 01:22:52;;;;;;;10.38;6.35;;;;;;;4.79;100.00;103045.44;4939396;29;20094;-71
2022/02/13 01:25:41;;;;;;;9.77;6.28;;;;;;;4.82;100.00;103045.56;4938979;29;20107;-72
2022/02/13 01:28:27;;;;;;;9.38;5.85;;;;;;;4.70;100.00;103039.84;4939807;29;20024;-70
2022/02/13 01:31:14;;;;;;;10.00;6.40;;;;;;;4.51;100.00;103037.28;4925952;29;20088;-71
2022/02/13 01:33:59;;;;;;;9.95;6.30;;;;;;;5.06;100.00;103030.13;4939592;29;20059;-71
2022/02/13 01:36:46;;;;;;;9.45;5.70;;;;;;;4.54;100.00;103028.72;4939260;29;20035;-71
2022/02/13 01:39:32;;;;;;;9.23;5.82;;;;;;;4.62;100.00;103035.13;4939406;29;20042;-72
2022/02/13 01:42:18;;;;;;;8.63;5.90;;;;;;;5.10;100.00;103019.94;4938788;29;20051;-71
2022/02/13 01:45:05;;;;;;;10.00;6.13;;;;;;;4.93;100.00;103025.25;4939028;29;20082;-71
2022/02/13 01:47:51;;;;;;;7.38;4.82;;;;;;;4.92;100.00;103026.06;4926259;29;20059;-71
2022/02/13 01:50:37;;;;;;;9.75;5.97;;;;;;;4.86;100.00;103021.50;4938913;29;20330;-71
2022/02/13 01:53:24;;;;;;;11.18;5.97;;;;;;;4.94;100.00;103011.41;4938539;29;20100;-71
2022/02/13 01:56:12;;;;;;;9.23;5.90;;;;;;;5.24;100.00;103012.69;4938596;29;20119;-71
2022/02/13 01:58:58;;;;;;;9.23;5.90;;;;;;;4.67;100.00;103005.97;4939495;29;20361;-71
2022/02/13 02:01:44;;;;;;;10.60;6.30;;;;;;;5.00;100.00;103019.50;4938355;29;20036;-71
2022/02/13 02:04:30;;;;;;;10.55;6.40;;;;;;;4.46;100.00;103006.78;4926480;29;20046;-72
2022/02/13 02:07:15;;;;;;;10.48;6.45;;;;;;;4.33;100.00;103009.63;4938671;29;20020;-71
2022/02/13 08:21:40;;;;;;;24.30;13.55;;;;;;;4.52;100.00;102994.94;5029758;23;20440;-71
2022/02/13 08:24:26;;;;;;;20.92;12.40;;;;;;;4.63;100.00;102995.41;4935971;29;20560;-72
2022/02/13 08:27:12;;;;;;;25.08;12.77;;;;;;;4.85;100.00;102988.56;4936873;29;20045;-72
2022/02/13 08:29:58;;;;;;;22.52;12.55;;;;;;;4.72;100.00;102991.50;4940671;29;20051;-71
2022/02/13 08:32:44;;;;;;;21.75;12.57;;;;;;;5.58;100.00;102975.94;4940802;29;20094;-72
2022/02/13 08:35:30;;;;;;;17.92;11.50;;;;;;;6.28;100.00;102986.44;4940395;29;20118;-71
2022/02/13 08:38:16;;;;;;;22.50;12.82;;;;;;;5.73;100.00;102979.09;4941261;29;20441;-71
2022/02/13 08:41:01;;;;;;;22.45;11.82;;;;;;;6.27;100.00;102979.44;4940506;29;20027;-70
2022/02/13 08:43:49;;;;;;;19.05;11.70;;;;;;;6.18;100.00;102983.47;4940096;29;20122;-70
2022/02/13 08:46:35;;;;;;;18.92;12.00;;;;;;;6.50;100.00;102975.94;4940654;29;20028;-71
2022/02/13 08:49:21;;;;;;;16.77;11.05;;;;;;;6.37;100.00;102970.25;4940160;29;20115;-71
2022/02/13 08:52:08;;;;;;;18.17;11.05;;;;;;;6.64;100.00;102974.72;4927640;29;20054;-72
2022/02/13 08:54:54;;;;;;;27.10;13.18;;;;;;;6.19;100.00;102960.06;4940382;29;20477;-71
2022/02/13 08:57:41;;;;;;;24.25;13.45;;;;;;;6.61;100.00;102955.47;4939715;29;20047;-72
2022/02/13 09:00:27;;;;;;;23.80;13.68;;;;;;;6.97;100.00;102955.00;4938781;29;20032;-72
2022/02/13 09:03:13;;;;;;;20.88;12.20;;;;;;;7.08;100.00;102951.00;4927751;29;20419;-71
2022/02/13 09:05:58;;;;;;;24.95;13.07;;;;;;;6.61;100.00;102951.16;4939596;29;20028;-71
2022/02/13 09:08:45;;;;;;;16.92;11.27;;;;;;;6.31;100.00;102944.03;4939871;29;20338;-71
2022/02/13 09:11:30;;;;;;;18.58;10.60;;;;;;;7.01;100.00;102948.16;4925844;29;20032;-71
2022/02/13 09:14:16;;;;;;;20.75;11.75;;;;;;;7.56;100.00;102943.84;4939737;29;20031;-71
2022/02/13 09:17:03;;;;;;;22.50;12.32;;;;;;;7.55;100.00;102936.84;4939976;29;20464;-71
2022/02/13 09:19:49;;;;;;;34.63;20.02;;;;;;;6.92;100.00;102924.41;4938904;29;20091;-72
2022/02/13 09:54:44;;;;;;;22.77;11.85;;;;;;;6.65;100.00;102900.94;5235702;23;20063;-72
2022/02/13 09:58:15;;;;;;;22.40;12.32;;;;;;;6.38;100.00;102892.19;4938397;29;20052;-71
2022/02/13 10:00:58;;;;;;;21.15;12.63;;;;;;;7.15;100.00;102877.38;4937058;29;20039;-72
2022/02/13 10:03:46;;;;;;;24.75;12.85;;;;;;;7.30;100.00;102871.72;4938879;29;20405;-72
2022/02/13 10:06:35;;;;;;;18.02;10.65;;;;;;;7.24;100.00;102861.13;4938636;29;20032;-73
2022/02/13 10:09:37;;;;;;;16.33;9.68;;;;;;;7.65;100.00;102860.63;4926445;29;20036;-72
2022/02/13 10:12:55;;;;;;;16.17;10.45;;;;;;;7.65;100.00;102855.41;4938708;29;20461;-73
2022/02/13 10:44:08;;;;;;;15.15;9.60;;;;;;;8.72;100.00;102806.91;5742912;23;20060;-72
2022/02/13 10:46:57;;;;;;;14.45;8.70;;;;;;;8.66;98.70;102798.91;4937972;29;20034;-70
2022/02/13 10:49:43;;;;;;;13.95;8.77;;;;;;;8.24;100.00;102787.44;4925459;29;20394;-71
2022/02/13 10:52:29;;;;;;;12.55;8.60;;;;;;;8.23;100.00;102777.81;4938047;29;20175;-71
2022/02/13 10:55:15;;;;;;;13.65;8.27;;;;;;;8.79;98.92;102777.44;4938067;29;20094;-71
2022/02/13 10:58:02;;;;;;;15.98;8.52;;;;;;;9.00;96.28;102772.66;4925009;29;20027;-72
2022/02/13 11:00:48;;;;;;;16.33;7.85;;;;;;;8.59;93.99;102766.53;4937641;29;20127;-71
2022/02/13 11:03:36;;;;;;;14.98;8.35;;;;;;;9.21;93.14;102766.16;4937670;29;20043;-72
2022/02/13 12:02:47;;;;;;;10.27;6.50;;;;;;;9.35;78.71;102674.88;5551122;23;20052;-72
2022/02/13 12:05:37;;;;;;;11.02;6.72;;;;;;;9.23;78.87;102664.19;4936804;29;20054;-72
2022/02/13 12:08:24;;;;;;;11.35;6.60;;;;;;;9.56;77.22;102652.59;4936841;29;20059;-71
2022/02/13 12:11:10;;;;;;;10.82;6.78;;;;;;;10.10;76.58;102664.00;4937564;29;20131;-71
2022/02/13 12:13:58;;;;;;;12.63;6.82;;;;;;;9.65;74.54;102652.75;4936616;29;20031;-71
2022/02/13 12:16:55;;;;;;;10.05;5.82;;;;;;;9.56;73.20;102646.47;4923989;29;20042;-71
2022/02/13 12:19:41;;;;;;;11.90;6.28;;;;;;;9.60;73.85;102636.09;4936906;29;20179;-71
2022/02/13 12:22:27;;;;;;;13.60;6.90;;;;;;;9.80;73.16;102634.69;4936885;29;20036;-71
2022/02/13 12:25:13;;;;;;;18.05;9.10;;;;;;;10.13;72.69;102635.25;4936832;29;20032;-72
2022/02/13 12:27:58;;;;;;;14.05;7.78;;;;;;;10.27;69.12;102630.22;4936530;29;20104;-70
2022/02/13 12:30:56;;;;;;;9.90;6.32;;;;;;;10.32;67.92;102627.66;4936073;29;20166;-72
2022/02/13 12:33:50;;;;;;;9.93;5.88;;;;;;;10.04;67.32;102624.59;4936625;29;20028;-72
2022/02/13 12:36:35;;;;;;;9.15;5.50;;;;;;;9.93;67.37;102620.06;4935821;29;20040;-71
2022/02/13 12:39:27;;;;;;;11.27;6.47;;;;;;;9.75;67.71;102611.91;4937206;29;20031;-71
2022/02/13 12:42:38;;;;;;;11.57;5.63;;;;;;;10.18;66.24;102612.59;4936600;29;20034;-72
2022/02/13 12:48:03;;;;;;;12.30;6.05;;;;;;;9.77;66.92;102602.38;6042260;23;20023;-72
2022/02/13 12:50:52;;;;;;;9.43;5.43;;;;;;;10.36;65.91;102600.66;4916833;29;20537;-73
2022/02/13 12:53:38;;;;;;;10.73;5.13;;;;;;;9.90;64.17;102594.69;4916454;29;20040;-71
2022/02/13 12:56:25;;;;;;;11.82;6.40;;;;;;;9.69;65.28;102588.28;4917556;29;20064;-71
2022/02/13 12:59:12;;;;;;;12.25;8.30;;;;;;;10.34;64.47;102591.88;4904614;29;20416;-71
2022/02/13 13:02:15;;;;;;;7.43;5.47;;;;;;;10.25;63.02;102584.78;4917114;29;20043;-71
2022/02/13 13:05:18;;;;;;;9.65;5.80;;;;;;;10.02;61.27;102586.16;4917349;29;20044;-72
2022/02/13 13:08:12;;;;;;;7.63;5.18;;;;;;;10.12;62.15;102588.06;4903680;29;20027;-71
2022/02/13 13:11:04;;;;;;;8.70;5.60;;;;;;;9.96;62.84;102584.31;4917730;29;20040;-71
2022/02/13 13:13:50;;;;;;;8.43;5.43;;;;;;;9.95;61.31;102574.72;4917158;29;20040;-71
2022/02/13 13:16:39;;;;;;;8.77;5.20;;;;;;;9.62;61.91;102568.09;4921056;29;20103;-73
2022/02/13 13:19:29;;;;;;;10.18;4.72;;;;;;;9.85;62.15;102567.56;4920319;29;20533;-72
2022/02/13 13:22:18;;;;;;;14.23;6.00;;;;;;;9.60;62.75;102554.09;4920490;29;20505;-72
2022/02/13 13:25:05;;;;;;;11.43;5.65;;;;;;;10.05;62.66;102557.44;4920798;29;20473;-71
2022/02/13 13:28:05;;;;;;;9.38;5.25;;;;;;;10.41;61.75;102554.41;4920626;29;20031;-71
2022/02/13 13:31:03;;;;;;;10.18;5.43;;;;;;;10.17;60.88;102546.25;4920717;29;20047;-71
2022/02/13 13:33:49;;;;;;;8.93;5.38;;;;;;;9.81;61.78;102546.59;4921173;29;20131;-71
2022/02/13 13:36:40;;;;;;;11.73;6.38;;;;;;;10.05;61.75;102552.19;4920310;29;20476;-71
2022/02/13 13:39:34;;;;;;;9.43;5.55;;;;;;;10.27;61.44;102549.00;4907252;29;20043;-71
2022/02/13 13:42:20;;;;;;;13.02;6.30;;;;;;;10.67;60.67;102537.22;4920543;29;20040;-72
2022/02/13 13:45:09;;;;;;;11.90;5.97;;;;;;;9.86;61.08;102542.28;4920711;29;20034;-71
2022/02/13 13:47:55;;;;;;;9.48;5.68;;;;;;;9.74;61.47;102535.09;4906599;29;20373;-72
2022/02/13 16:46:01;;;;;;;27.08;14.10;;;;;;;7.95;69.26;102468.22;5865694;23;20023;-72
2022/02/13 16:52:29;;;;;;;31.73;17.55;;;;;;;8.08;68.93;102465.00;4940164;29;20067;-71
2022/02/13 16:55:15;;;;;;;31.02;16.08;;;;;;;8.13;69.60;102466.00;4939973;29;20075;-72
2022/02/13 16:58:00;;;;;;;27.05;14.88;;;;;;;7.72;70.36;102466.84;4920570;29;20111;-72
2022/02/13 17:00:46;;;;;;;39.50;18.27;;;;;;;7.64;70.96;102471.03;4921920;29;20092;-71
2022/02/13 17:03:33;;;;;;;46.13;23.63;;;;;;;7.70;71.79;102465.94;4920857;29;20040;-72
2022/02/13 17:06:20;;;;;;;26.67;15.15;;;;;;;7.71;72.33;102461.59;4920997;29;20054;-72
2022/02/13 17:09:06;;;;;;;40.55;22.02;;;;;;;7.61;72.16;102462.25;4920649;29;20353;-72
2022/02/13 17:11:52;;;;;;;28.63;14.52;;;;;;;7.63;72.61;102468.41;4907431;29;20032;-70
2022/02/13 17:14:38;;;;;;;22.08;13.13;;;;;;;7.51;73.08;102468.13;4921531;29;20111;-72
2022/02/13 17:17:24;;;;;;;28.27;12.50;;;;;;;7.72;72.94;102458.16;4922120;29;20123;-72
2022/02/13 21:17:00;;;;;;;12.88;7.40;;;;;;;5.07;100.00;102346.94;5843622;23;21481;-70
2022/02/13 21:19:46;;;;;;;16.27;8.32;;;;;;;5.04;100.00;102340.78;4929979;29;20048;-70
2022/02/13 21:22:33;;;;;;;15.82;8.35;;;;;;;4.65;100.00;102339.53;4929530;29;20349;-70
2022/02/13 21:25:19;;;;;;;16.15;8.25;;;;;;;4.86;100.00;102333.31;4942888;29;20424;-70
2022/02/13 21:28:07;;;;;;;14.80;7.82;;;;;;;4.93;100.00;102337.88;4923459;29;20434;-72
2022/02/13 21:30:53;;;;;;;13.30;8.05;;;;;;;4.92;100.00;102338.72;4923242;29;20299;-71
2022/02/13 21:33:38;;;;;;;14.35;7.63;;;;;;;5.00;100.00;102331.13;4923457;29;20035;-71
2022/02/13 21:36:24;;;;;;;17.15;8.57;;;;;;;5.04;100.00;102328.69;4919494;29;20024;-71
2022/02/13 21:39:10;;;;;;;16.75;10.20;;;;;;;5.13;100.00;102320.28;4921282;29;20061;-71
2022/02/13 21:41:56;;;;;;;16.33;9.05;;;;;;;4.82;100.00;102318.47;4920416;29;20039;-71
2022/02/13 21:44:43;;;;;;;16.58;9.95;;;;;;;4.82;100.00;102310.66;4907739;29;20122;-71
2022/02/13 21:47:29;;;;;;;20.40;10.30;;;;;;;4.62;100.00;102313.47;4920001;29;20323;-71
2022/02/13 21:50:15;;;;;;;18.17;10.00;;;;;;;4.44;100.00;102308.59;4920589;29;20035;-71
2022/02/13 21:53:01;;;;;;;16.88;9.90;;;;;;;4.70;100.00;102312.00;4908105;29;20031;-70
2022/02/13 21:55:47;;;;;;;19.13;9.68;;;;;;;4.90;100.00;102319.59;4920346;29;20355;-71
2022/02/13 21:58:34;;;;;;;14.48;9.25;;;;;;;4.76;100.00;102322.59;4908024;29;20115;-71
2022/02/13 22:01:20;;;;;;;17.40;9.90;;;;;;;4.56;100.00;102321.06;4905933;29;20028;-71
2022/02/13 22:04:06;;;;;;;17.65;9.63;;;;;;;4.41;100.00;102316.28;4919876;29;20070;-70
2022/02/13 22:06:56;;;;;;;17.83;10.15;;;;;;;4.47;100.00;102313.84;4906840;29;20024;-72
2022/02/13 22:09:42;;;;;;;21.55;9.80;;;;;;;4.55;100.00;102321.91;4906732;29;20032;-71
2022/02/13 22:12:28;;;;;;;27.42;16.80;;;;;;;4.26;100.00;102323.53;4919554;29;20028;-72
2022/02/13 22:15:14;;;;;;;19.67;11.27;;;;;;;4.17;100.00;102323.25;4919563;29;20047;-71
2022/02/13 22:18:00;;;;;;;16.65;8.43;;;;;;;4.25;100.00;102329.56;4918706;29;20048;-72
2022/02/13 22:20:45;;;;;;;14.60;8.88;;;;;;;4.25;100.00;102326.06;4920377;29;20123;-71
2022/02/13 22:23:31;;;;;;;15.07;8.52;;;;;;;4.22;100.00;102326.00;4920206;29;20039;-71
2022/02/13 22:26:17;;;;;;;15.68;8.63;;;;;;;4.44;100.00;102318.06;4919943;29;20073;-71
2022/02/13 22:29:03;;;;;;;14.32;8.40;;;;;;;4.18;100.00;102314.63;4920783;29;20024;-71
2022/02/13 22:31:49;;;;;;;18.55;10.00;;;;;;;4.34;100.00;102310.84;4906304;29;20036;-71
2022/02/13 22:34:38;;;;;;;17.55;9.70;;;;;;;4.49;100.00;102319.09;4919086;29;20072;-71
2022/02/13 22:37:24;;;;;;;19.48;10.07;;;;;;;4.35;100.00;102316.06;4919119;29;20028;-71
2022/02/13 22:40:12;;;;;;;17.45;10.40;;;;;;;4.29;100.00;102308.09;4920043;29;20118;-71
2022/02/13 22:42:57;;;;;;;17.27;10.68;;;;;;;4.44;100.00;102303.41;4919121;29;20035;-73
2022/02/13 22:45:43;;;;;;;18.13;10.70;;;;;;;4.40;100.00;102301.53;4906435;29;20465;-72
2022/02/13 22:48:29;;;;;;;19.48;10.90;;;;;;;4.25;100.00;102295.84;4919066;29;20450;-70
2022/02/13 22:51:15;;;;;;;19.40;11.10;;;;;;;4.37;100.00;102298.84;4919507;29;20039;-71
2022/02/13 22:54:00;;;;;;;20.83;10.55;;;;;;;4.33;100.00;102293.50;4918794;29;20485;-71
2022/02/13 22:56:46;;;;;;;22.65;11.82;;;;;;;4.15;100.00;102288.56;4919532;29;20123;-72
2022/02/13 22:59:32;;;;;;;22.80;11.95;;;;;;;4.20;100.00;102286.13;4919800;29;20085;-70
2022/02/13 23:02:17;;;;;;;19.27;11.13;;;;;;;4.04;100.00;102284.75;4918198;29;20024;-71
2022/02/13 23:05:06;;;;;;;19.83;11.25;;;;;;;4.35;100.00;102286.66;4918413;29;20063;-72
